Pagrindinis puslapis
METAR-TAF:

METAR-TAF

Oro uostai :

Helsinkis, Suomija

platuma: 60-19N, ilguma: 024-58E, Aukštis: 51 m

Dabartinis oras

Ataskaita buvo paskelbta 31 minutes, ne 01:20 UTC
Vėjas 2 kt iš Vakarų
Temperatūra 8°C
Drėgmė 71%
Slėgis 1026 hPa
Matomumas 10 km arba daugiau
nėra debesų žemiau 1500 m ir nėra kamuolinių lietaus debesų

METAR: EFHK 270120Z 27002KT CAVOK 08/03 Q1026 NOSIG

Laikas: 04:51 (01:51 UTC)

Prognozė

Ataskaita buvo paskelbta 2 valandos ir 28 minutes, ne 23:23 UTC
Prognozė galioja nuo 27 metu 00 UTC su 27 metu 24 UTC
Vėjas 6 kt iš Šiaurės Vakarų
Matomumas 10 km arba daugiau
nėra debesų žemiau 1500 m ir nėra kamuolinių lietaus debesų
Tapsmas
nuo 27 metu 08 UTC su 27 metu 10 UTC
Vėjas 10 kt iš Pietvakarių
Tapsmas
nuo 27 metu 18 UTC su 27 metu 20 UTC
Vėjas 5 kt iš Šiaurės Vakarų

TAF: EFHK 262323Z 2700/2724 31006KT CAVOK BECMG 2708/2710 22010KT BECMG 2718/2720 32005KT

Orai ataskaitas ir orų prognozės (METAR, TAF).

turimą stotys yra geltonos ir raudonos taškus žemėlapyje.

Perkelti pele per norėdami pamatyti stoties vardą.

Tada spustelėkite, norėdami matyti oro stebėjimo ir prognozės.

Norėdami pakeisti žemėlapį: spustelėkite ant žalios mygtukų su juodo kryžiaus žemyn,; žalią mygtuką su brūkšneliu, jei norite nutolinti; arba žalių rodyklių gretimoms žemėlapius.


METAR-TAF: